Pythagoras — C6ZO4 — position and weather

sailwx.info

Track history (hours):
 
Tides and Currents Weather Stations Pressure Air Temp Water Temp Dewpoint Dewpoint Depression Visibility Wind Speed Wind Dir Waves Ship Positions

Pythagoras

Last reported at 2015-Mar-11 10:16 UTC. Time now 2015-Mar-31 18:10 UTC.
Position N 25°31' W 115°07'.
Warning: this ship's position is 20 days out of date.

Length 190 m; draft 11.6 m.

Type: Cargo ship. MMSI: 311061300.

Date/timePositionNaut miles runAvg speedWind from/ knotsBaromVisibWave heightAir tempDewpointWater temp
2015-Mar-11 10:16N 25°31' W 115°07'1314.3
2015-Mar-11 09:19N 25°40' W 115°18'34213.7
2015-Mar-10 08:21N 29°20' W 120°13'2613.7
2015-Mar-10 06:28N 29°36' W 120°36'9913.9
2015-Mar-09 23:18N 30°40' W 122°04'2514.1
2015-Mar-09 21:33N 30°56' W 122°25'10213.7
2015-Mar-09 14:06N 32°06' W 123°52'1013.5
2015-Mar-09 13:24N 32°14' W 123°58'3813.3
2015-Mar-09 10:31N 32°46' W 124°23'3313.3
2015-Mar-09 08:04N 33°13' W 124°45'713.6
2015-Mar-09 07:33N 33°19' W 124°49'1413.6
2015-Mar-09 06:30N 33°31' W 124°59'1313.6
2015-Mar-09 05:33N 33°42' W 125°07'1413.6
2015-Mar-09 04:33N 33°53' W 125°16'1413.8
2015-Mar-09 03:33N 34°05' W 125°26'1413.8
2015-Mar-09 02:33N 34°16' W 125°35'2813.6
2015-Mar-09 00:29N 34°40' W 125°53'1414.0
2015-Mar-08 23:29N 34°53' W 126°00'1313.6
2015-Mar-08 22:33N 35°04' W 126°07'2013.7
2015-Mar-08 21:04N 35°22' W 126°18'913.6
2015-Mar-08 20:24N 35°30' W 126°23'1213.6
2015-Mar-08 19:33N 35°41' W 126°30'1813.9
2015-Mar-08 18:15N 35°57' W 126°40'1114.0
2015-Mar-08 17:30N 36°06' W 126°45'2814.0
2015-Mar-08 15:28N 36°32' W 127°01'1413.8
2015-Mar-08 14:27N 36°44' W 127°09'2714.2
2015-Mar-08 12:33N 37°08' W 127°24'1514.0
2015-Mar-08 11:29N 37°22' W 127°33'1413.7
2015-Mar-08 10:29N 37°34' W 127°40'1613.9
2015-Mar-08 09:22N 37°48' W 127°49'1214.1
2015-Mar-08 08:32N 37°58' W 127°55'1914.4
2015-Mar-08 07:12N 38°16' W 128°06'  
Track history (hours):
 
Tides and Currents Weather Stations Pressure Air Temp Water Temp Dewpoint Dewpoint Depression Visibility Wind Speed Wind Dir Waves Ship Positions

Pythagoras

Last reported at 2015-Mar-11 10:16 UTC. Time now 2015-Mar-31 18:10 UTC.
Position N 25°31' W 115°07'.
Warning: this ship's position is 20 days out of date.

Length 190 m; draft 11.6 m.

Type: Cargo ship. MMSI: 311061300.

Date/timePositionNaut miles runAvg speedWind from/ knotsBaromVisibWave heightAir tempDewpointWater temp
2015-Mar-11 10:16N 25°31' W 115°07'1314.3
2015-Mar-11 09:19N 25°40' W 115°18'34213.7
2015-Mar-10 08:21N 29°20' W 120°13'2613.7
2015-Mar-10 06:28N 29°36' W 120°36'9913.9
2015-Mar-09 23:18N 30°40' W 122°04'2514.1
2015-Mar-09 21:33N 30°56' W 122°25'10213.7
2015-Mar-09 14:06N 32°06' W 123°52'1013.5
2015-Mar-09 13:24N 32°14' W 123°58'3813.3
2015-Mar-09 10:31N 32°46' W 124°23'3313.3
2015-Mar-09 08:04N 33°13' W 124°45'713.6
2015-Mar-09 07:33N 33°19' W 124°49'1413.6
2015-Mar-09 06:30N 33°31' W 124°59'1313.6
2015-Mar-09 05:33N 33°42' W 125°07'1413.6
2015-Mar-09 04:33N 33°53' W 125°16'1413.8
2015-Mar-09 03:33N 34°05' W 125°26'1413.8
2015-Mar-09 02:33N 34°16' W 125°35'2813.6
2015-Mar-09 00:29N 34°40' W 125°53'1414.0
2015-Mar-08 23:29N 34°53' W 126°00'1313.6
2015-Mar-08 22:33N 35°04' W 126°07'2013.7
2015-Mar-08 21:04N 35°22' W 126°18'913.6
2015-Mar-08 20:24N 35°30' W 126°23'1213.6
2015-Mar-08 19:33N 35°41' W 126°30'1813.9
2015-Mar-08 18:15N 35°57' W 126°40'1114.0
2015-Mar-08 17:30N 36°06' W 126°45'2814.0
2015-Mar-08 15:28N 36°32' W 127°01'1413.8
2015-Mar-08 14:27N 36°44' W 127°09'2714.2
2015-Mar-08 12:33N 37°08' W 127°24'1514.0
2015-Mar-08 11:29N 37°22' W 127°33'1413.7
2015-Mar-08 10:29N 37°34' W 127°40'1613.9
2015-Mar-08 09:22N 37°48' W 127°49'1214.1
2015-Mar-08 08:32N 37°58' W 127°55'1914.4
2015-Mar-08 07:12N 38°16' W 128°06'  

Dump ship's entire track history